Time;durP1;ratioP1;P1;durP2;ratioP2;P2;SDS_P1;SDS_P2;PMS_P1;PMS_P2;Temp;Humidity;BMP_temperature;BMP_pressure;BME280_temperature;BME280_humidity;BME280_pressure;Samples;Min_cycle;Max_cycle;Signal;HPM_P1;HPM_P2
2023/12/23 00:00:24;;;;;;;28.80;17.27;;;;;;;3.72;100.00;96453.84;4986308;28;20441;-76
2023/12/23 00:02:52;;;;;;;30.50;18.45;;;;;;;3.66;100.00;96446.75;4956119;28;20058;-77
2023/12/23 00:05:18;;;;;;;28.67;16.50;;;;;;;3.76;100.00;96451.66;4959112;28;20136;-76
2023/12/23 00:07:45;;;;;;;30.05;16.77;;;;;;;3.64;100.00;96440.91;4943888;28;20053;-77
2023/12/23 00:10:10;;;;;;;31.73;18.83;;;;;;;3.56;100.00;96437.59;4927751;28;20174;-77
2023/12/23 00:12:37;;;;;;;31.48;17.40;;;;;;;3.58;100.00;96440.84;4927371;28;20150;-77
2023/12/23 00:15:04;;;;;;;30.80;16.77;;;;;;;3.64;100.00;96438.28;4943929;28;20050;-76
2023/12/23 00:17:31;;;;;;;30.42;16.98;;;;;;;3.59;100.00;96442.47;4943284;28;20223;-77
2023/12/23 00:19:57;;;;;;;29.33;16.80;;;;;;;3.71;100.00;96427.78;4911134;28;20078;-77
2023/12/23 00:22:23;;;;;;;27.63;16.88;;;;;;;3.66;100.00;96433.63;4958142;28;20070;-76
2023/12/23 00:24:49;;;;;;;25.52;14.98;;;;;;;3.65;100.00;96424.16;4942549;28;20089;-76
2023/12/23 00:27:16;;;;;;;28.23;15.88;;;;;;;3.67;100.00;96434.44;4958455;28;20081;-76
2023/12/23 00:29:42;;;;;;;31.40;16.40;;;;;;;3.54;100.00;96432.53;4928123;28;20051;-76
2023/12/23 00:32:09;;;;;;;29.00;16.02;;;;;;;3.55;100.00;96428.94;4957985;28;20058;-76
2023/12/23 00:34:35;;;;;;;27.60;15.77;;;;;;;3.58;100.00;96412.00;4926273;28;20145;-76
2023/12/23 00:37:01;;;;;;;24.25;13.50;;;;;;;3.58;100.00;96404.13;4961546;28;20054;-77
2023/12/23 00:39:28;;;;;;;23.58;14.82;;;;;;;3.55;100.00;96409.75;4945847;28;20043;-76
2023/12/23 00:41:56;;;;;;;23.73;13.52;;;;;;;3.56;100.00;96391.19;4947585;28;20038;-77
2023/12/23 00:44:22;;;;;;;24.80;14.50;;;;;;;3.50;100.00;96384.09;4957683;28;20047;-76
2023/12/23 00:46:48;;;;;;;21.88;13.45;;;;;;;3.59;100.00;96385.56;4974351;28;20089;-76
2023/12/23 00:49:14;;;;;;;23.38;13.25;;;;;;;3.66;100.00;96383.00;4958253;28;20082;-77
2023/12/23 00:51:40;;;;;;;25.38;14.30;;;;;;;3.69;100.00;96421.97;4941924;28;20049;-76
2023/12/23 00:54:06;;;;;;;25.13;14.20;;;;;;;3.65;100.00;96390.03;4957922;28;20065;-75
2023/12/23 00:56:31;;;;;;;21.77;13.50;;;;;;;3.69;100.00;96400.97;4958979;28;20559;-76
2023/12/23 00:58:57;;;;;;;23.70;13.52;;;;;;;3.71;100.00;96405.00;4945317;28;20157;-76
2023/12/23 01:01:24;;;;;;;19.17;12.35;;;;;;;3.67;100.00;96397.72;4960567;28;20133;-76
2023/12/23 01:03:51;;;;;;;22.40;13.88;;;;;;;3.72;100.00;96401.38;4975066;28;20141;-76
2023/12/23 01:06:17;;;;;;;20.98;12.80;;;;;;;3.74;100.00;96396.75;4942319;28;20146;-77
2023/12/23 01:08:42;;;;;;;24.55;12.85;;;;;;;3.64;100.00;96387.59;4948062;28;20148;-76
2023/12/23 01:11:10;;;;;;;23.30;14.18;;;;;;;3.72;100.00;96379.59;4964041;28;20168;-76
2023/12/23 01:13:35;;;;;;;27.00;14.70;;;;;;;3.62;100.00;96381.75;4980167;28;20050;-76
2023/12/23 01:16:02;;;;;;;24.90;12.85;;;;;;;3.70;100.00;96368.47;4994154;28;20060;-77
2023/12/23 01:18:29;;;;;;;26.98;14.82;;;;;;;3.52;100.00;96362.94;5019265;28;20201;-76
2023/12/23 01:20:55;;;;;;;26.42;13.52;;;;;;;3.48;100.00;96373.81;5075538;28;20048;-76
2023/12/23 01:23:23;;;;;;;26.95;14.57;;;;;;;3.41;100.00;96359.84;5063490;28;20099;-75
2023/12/23 01:25:49;;;;;;;25.57;13.77;;;;;;;3.48;100.00;96344.97;5063574;28;20039;-75
2023/12/23 01:28:15;;;;;;;28.98;15.02;;;;;;;3.31;100.00;96354.13;5047162;28;20104;-75
2023/12/23 01:30:42;;;;;;;30.92;13.98;;;;;;;3.42;100.00;96365.91;5063442;28;20504;-75
2023/12/23 01:33:07;;;;;;;23.33;14.02;;;;;;;3.46;100.00;96339.09;5063449;28;20043;-76
2023/12/23 01:35:34;;;;;;;23.67;13.10;;;;;;;3.52;100.00;96331.47;5063159;28;20508;-75
2023/12/23 01:38:01;;;;;;;30.83;15.10;;;;;;;3.46;100.00;96335.66;5046608;28;20044;-75
2023/12/23 01:40:30;;;;;;;25.95;13.25;;;;;;;3.45;100.00;96320.94;5046316;28;20438;-75
2023/12/23 01:42:56;;;;;;;33.10;15.43;;;;;;;3.35;100.00;96316.03;5079755;28;20083;-75
2023/12/23 01:45:22;;;;;;;28.33;14.50;;;;;;;3.35;100.00;96329.13;5046389;28;20078;-74
2023/12/23 01:47:49;;;;;;;25.85;13.45;;;;;;;3.34;100.00;96314.41;5046717;28;20055;-75
2023/12/23 01:50:17;;;;;;;26.63;14.13;;;;;;;3.36;100.00;96307.19;5046240;28;20054;-75
2023/12/23 01:52:44;;;;;;;25.07;13.53;;;;;;;3.42;100.00;96300.34;5046081;28;20039;-76
2023/12/23 01:55:11;;;;;;;23.25;12.60;;;;;;;3.24;100.00;96313.16;5046781;28;20046;-78
2023/12/23 01:57:37;;;;;;;28.38;13.48;;;;;;;3.24;100.00;96292.19;5046374;28;20042;-78
2023/12/23 02:00:03;;;;;;;35.75;13.05;;;;;;;3.19;100.00;96287.53;5046778;28;20051;-79
2023/12/23 02:02:38;;;;;;;21.10;12.15;;;;;;;3.26;100.00;96296.22;5066231;28;20051;-77
2023/12/23 02:05:06;;;;;;;27.52;12.63;;;;;;;3.27;100.00;96294.41;5104949;28;20130;-78
2023/12/23 02:07:33;;;;;;;27.25;12.30;;;;;;;3.23;100.00;96282.69;5081051;28;20110;-78
2023/12/23 02:09:59;;;;;;;21.40;12.53;;;;;;;3.12;100.00;96284.03;5021839;28;20155;-78
2023/12/23 02:12:59;;;;;;;36.97;14.05;;;;;;;3.13;100.00;96283.06;5021523;28;20147;-78
2023/12/23 02:15:27;;;;;;;32.28;14.15;;;;;;;3.20;100.00;96264.72;4978995;28;20056;-78
2023/12/23 02:18:00;;;;;;;26.92;12.38;;;;;;;3.23;100.00;96273.00;4979169;28;20476;-75
2023/12/23 02:20:29;;;;;;;24.90;12.35;;;;;;;3.26;100.00;96270.00;4994994;28;20049;-78
2023/12/23 02:22:55;;;;;;;31.87;13.17;;;;;;;3.22;100.00;96276.66;4962894;28;20045;-79
2023/12/23 02:25:23;;;;;;;26.77;13.27;;;;;;;3.14;100.00;96274.19;4962948;28;20054;-79
2023/12/23 02:27:58;;;;;;;22.53;13.23;;;;;;;3.19;100.00;96271.78;4978676;28;20116;-82
2023/12/23 02:30:25;;;;;;;22.60;12.50;;;;;;;3.04;100.00;96271.09;4995199;28;20537;-80
2023/12/23 02:32:51;;;;;;;23.17;12.07;;;;;;;3.01;100.00;96268.84;5005331;28;20549;-81
2023/12/23 02:35:17;;;;;;;24.67;11.60;;;;;;;3.10;100.00;96278.19;5030069;28;20032;-79
2023/12/23 02:37:42;;;;;;;33.67;14.23;;;;;;;3.01;100.00;96265.44;4989499;28;20061;-79
2023/12/23 02:40:10;;;;;;;36.03;13.17;;;;;;;3.04;100.00;96271.09;5002797;28;20057;-79
2023/12/23 02:42:35;;;;;;;23.67;10.97;;;;;;;3.02;100.00;96283.59;4986447;28;20567;-79
2023/12/23 02:45:03;;;;;;;16.53;9.73;;;;;;;3.07;100.00;96269.91;5003844;28;20572;-79
2023/12/23 02:47:30;;;;;;;17.57;9.60;;;;;;;3.15;100.00;96259.25;5018781;28;20060;-76
2023/12/23 02:49:55;;;;;;;13.07;8.70;;;;;;;3.15;100.00;96270.53;4985219;28;20047;-80
2023/12/23 02:52:23;;;;;;;13.50;10.00;;;;;;;3.20;100.00;96249.81;5017996;28;20087;-78
2023/12/23 02:54:51;;;;;;;12.90;8.30;;;;;;;3.22;100.00;96263.53;4985584;28;20049;-80
2023/12/23 02:57:17;;;;;;;11.30;8.07;;;;;;;3.27;100.00;96248.03;4958881;28;20117;-80
2023/12/23 02:59:43;;;;;;;14.97;8.60;;;;;;;3.20;100.00;96241.94;4927376;28;20046;-78
2023/12/23 03:02:09;;;;;;;12.43;8.17;;;;;;;3.24;100.00;96266.75;4959385;28;20052;-79
2023/12/23 03:04:36;;;;;;;14.63;9.30;;;;;;;3.20;100.00;96243.75;4927105;28;20046;-80
2023/12/23 03:07:04;;;;;;;13.20;8.23;;;;;;;3.30;100.00;96247.66;4942920;28;20058;-79
2023/12/23 03:09:30;;;;;;;41.10;10.80;;;;;;;3.32;100.00;96261.34;5007996;28;20047;-80
2023/12/23 03:11:57;;;;;;;12.98;8.50;;;;;;;3.31;100.00;96251.88;5001236;28;20075;-76
2023/12/23 03:14:24;;;;;;;14.13;8.77;;;;;;;3.36;100.00;96244.25;5001124;28;20394;-79
2023/12/23 03:16:50;;;;;;;14.65;8.75;;;;;;;3.78;100.00;96258.09;4977884;28;20054;-79
2023/12/23 03:19:16;;;;;;;17.50;8.97;;;;;;;3.99;100.00;96250.88;4962079;28;20116;-79
2023/12/23 03:21:43;;;;;;;23.97;9.70;;;;;;;3.67;100.00;96248.16;4961798;28;20518;-79
2023/12/23 03:24:09;;;;;;;11.07;8.07;;;;;;;3.54;100.00;96242.91;5010578;28;20050;-78
2023/12/23 03:26:35;;;;;;;11.55;7.82;;;;;;;3.55;100.00;96241.88;4958485;28;20058;-78
2023/12/23 03:29:07;;;;;;;28.27;8.50;;;;;;;3.62;100.00;96242.69;4959041;28;20092;-78
2023/12/23 03:31:36;;;;;;;8.50;5.77;;;;;;;3.43;100.00;96247.69;4958372;28;20077;-77
2023/12/23 03:34:02;;;;;;;8.85;6.45;;;;;;;3.48;100.00;96240.03;4942608;28;20093;-77
2023/12/23 03:36:28;;;;;;;9.30;5.97;;;;;;;3.62;100.00;96237.44;4927001;28;20133;-79
2023/12/23 03:38:58;;;;;;;9.00;5.78;;;;;;;3.69;100.00;96231.22;4974731;28;20140;-79
2023/12/23 03:41:24;;;;;;;9.63;6.30;;;;;;;3.74;100.00;96238.50;4958518;28;20137;-79
2023/12/23 03:43:51;;;;;;;10.98;6.40;;;;;;;3.71;100.00;96238.88;4958736;28;20055;-79
2023/12/23 03:46:20;;;;;;;9.63;6.22;;;;;;;3.74;100.00;96230.66;4942483;28;20064;-80
2023/12/23 03:48:47;;;;;;;9.45;7.03;;;;;;;3.79;100.00;96243.97;4977104;28;20152;-80
2023/12/23 03:51:13;;;;;;;12.52;6.43;;;;;;;3.81;100.00;96247.19;5029691;28;20137;-77
2023/12/23 03:53:38;;;;;;;9.07;6.38;;;;;;;3.76;100.00;96260.09;4997050;28;20073;-79
2023/12/23 03:56:05;;;;;;;8.45;6.57;;;;;;;3.82;100.00;96267.19;4997098;28;20053;-75
2023/12/23 03:58:33;;;;;;;8.38;6.35;;;;;;;3.86;100.00;96244.78;5013292;28;20058;-77
2023/12/23 04:00:58;;;;;;;7.45;5.72;;;;;;;3.83;100.00;96253.06;4997031;28;20456;-74
2023/12/23 04:03:24;;;;;;;7.30;6.00;;;;;;;3.75;100.00;96250.63;5007248;28;20058;-74
2023/12/23 04:05:50;;;;;;;8.30;5.93;;;;;;;3.73;100.00;96255.25;5019949;28;20040;-77
2023/12/23 04:08:16;;;;;;;9.85;6.05;;;;;;;3.71;100.00;96252.81;5046117;28;20138;-78
2023/12/23 04:10:42;;;;;;;9.02;6.72;;;;;;;3.74;100.00;96252.44;5060703;28;20158;-78
2023/12/23 04:13:08;;;;;;;10.55;6.65;;;;;;;3.78;100.00;96237.91;5044345;28;20509;-79
2023/12/23 04:15:34;;;;;;;10.43;6.65;;;;;;;3.86;100.00;96242.97;5060623;28;20520;-78
2023/12/23 04:17:59;;;;;;;11.45;7.85;;;;;;;3.81;100.00;96263.75;5043954;28;20043;-71
2023/12/23 04:20:25;;;;;;;9.80;7.07;;;;;;;3.79;100.00;96238.72;5044365;28;20059;-80
2023/12/23 04:22:51;;;;;;;9.32;6.72;;;;;;;3.88;100.00;96237.50;5060785;28;20075;-79
2023/12/23 04:25:17;;;;;;;10.57;6.97;;;;;;;3.96;100.00;96234.72;5044218;28;20504;-77
2023/12/23 04:27:44;;;;;;;9.05;6.60;;;;;;;3.99;100.00;96248.25;5060900;28;20043;-77
2023/12/23 04:30:12;;;;;;;10.18;6.57;;;;;;;3.99;100.00;96242.19;5044117;28;20050;-77
2023/12/23 04:32:37;;;;;;;9.52;6.78;;;;;;;4.06;100.00;96246.44;5043949;28;20039;-76
2023/12/23 04:35:03;;;;;;;10.20;6.75;;;;;;;4.07;100.00;96244.63;5077303;28;20457;-76
2023/12/23 04:37:30;;;;;;;10.93;6.90;;;;;;;4.17;100.00;96242.41;5077405;28;20476;-73
2023/12/23 04:40:19;;;;;;;15.73;7.57;;;;;;;4.18;100.00;96249.28;5060904;28;20057;-77
2023/12/23 04:42:45;;;;;;;10.40;6.72;;;;;;;4.12;100.00;96244.84;5076542;28;20058;-76
2023/12/23 04:45:11;;;;;;;12.18;8.02;;;;;;;4.10;100.00;96246.84;5059104;28;20191;-76
2023/12/23 04:47:43;;;;;;;12.85;7.90;;;;;;;4.19;100.00;96245.66;5041721;28;20572;-75
2023/12/23 04:50:09;;;;;;;10.32;7.20;;;;;;;4.21;100.00;96241.00;5076648;28;20438;-74
2023/12/23 04:52:35;;;;;;;11.02;7.18;;;;;;;4.27;100.00;96240.19;5045325;28;20039;-76
2023/12/23 04:55:05;;;;;;;11.82;7.65;;;;;;;4.28;100.00;96237.38;5062310;28;20047;-74
2023/12/23 04:57:33;;;;;;;12.83;7.57;;;;;;;4.27;100.00;96241.03;5062282;28;20043;-75
2023/12/23 04:59:58;;;;;;;11.93;8.05;;;;;;;4.28;100.00;96249.69;5063430;28;20495;-75
2023/12/23 05:02:24;;;;;;;15.25;9.35;;;;;;;4.14;100.00;96248.06;5064502;28;20043;-75
2023/12/23 05:04:50;;;;;;;11.68;8.32;;;;;;;4.29;100.00;96248.69;5068432;28;20050;-77
2023/12/23 05:07:15;;;;;;;16.13;9.32;;;;;;;4.23;100.00;96225.88;5034103;28;20044;-76
2023/12/23 05:09:41;;;;;;;15.57;9.20;;;;;;;4.30;100.00;96226.66;5027433;28;20579;-75
2023/12/23 05:12:07;;;;;;;14.40;8.65;;;;;;;4.37;100.00;96230.09;5022767;28;20455;-80
2023/12/23 05:14:33;;;;;;;16.05;9.93;;;;;;;4.28;100.00;96245.25;4965960;28;20053;-74
2023/12/23 05:16:59;;;;;;;14.70;9.23;;;;;;;4.32;100.00;96235.94;4964543;28;20048;-72
2023/12/23 05:19:25;;;;;;;16.35;10.65;;;;;;;4.39;100.00;96241.22;4962697;28;21010;-73
2023/12/23 05:21:52;;;;;;;15.65;10.00;;;;;;;4.40;100.00;96240.19;4972468;28;20737;-76
2023/12/23 05:24:18;;;;;;;19.23;11.05;;;;;;;4.35;100.00;96246.06;5002400;28;20053;-75
2023/12/23 05:26:44;;;;;;;21.52;11.50;;;;;;;4.26;100.00;96236.75;4990141;28;20525;-75
2023/12/23 05:29:09;;;;;;;20.05;12.15;;;;;;;4.35;100.00;96250.50;4993772;28;20041;-78
2023/12/23 05:31:35;;;;;;;19.30;10.75;;;;;;;4.37;100.00;96241.41;4991785;28;20505;-75
2023/12/23 05:34:01;;;;;;;19.38;12.10;;;;;;;4.35;100.00;96243.41;4989715;28;20371;-73
2023/12/23 05:36:27;;;;;;;22.75;12.57;;;;;;;4.33;100.00;96255.16;5002831;28;20376;-76
2023/12/23 05:38:53;;;;;;;19.55;11.65;;;;;;;4.36;100.00;96234.56;5002491;28;20049;-75
2023/12/23 05:41:19;;;;;;;21.50;11.65;;;;;;;4.32;100.00;96245.66;4987149;28;20087;-78
2023/12/23 05:43:45;;;;;;;20.92;12.02;;;;;;;4.35;100.00;96234.75;4988651;28;20057;-78
2023/12/23 05:46:10;;;;;;;25.52;14.73;;;;;;;4.32;100.00;96230.69;5042474;28;20055;-77
2023/12/23 05:48:36;;;;;;;20.45;12.82;;;;;;;4.39;100.00;96238.59;5079978;28;20043;-76
2023/12/23 05:51:02;;;;;;;23.00;12.55;;;;;;;4.46;100.00;96237.56;5046758;28;20046;-76
2023/12/23 05:53:28;;;;;;;23.38;13.73;;;;;;;4.41;100.00;96241.81;5046259;28;20035;-76
2023/12/23 05:55:54;;;;;;;24.67;13.52;;;;;;;4.41;100.00;96253.13;5062175;28;20071;-76
2023/12/23 05:58:20;;;;;;;27.35;15.55;;;;;;;4.33;100.00;96250.72;5062455;28;20461;-78
2023/12/23 06:00:49;;;;;;;27.27;15.15;;;;;;;4.43;100.00;96258.16;5030655;28;20040;-77
2023/12/23 06:03:14;;;;;;;28.60;14.93;;;;;;;4.36;100.00;96263.44;5022777;28;20561;-77
2023/12/23 06:05:40;;;;;;;25.55;15.45;;;;;;;4.40;100.00;96255.94;5022565;28;20120;-77
2023/12/23 06:08:06;;;;;;;24.13;14.88;;;;;;;4.46;100.00;96270.94;5038918;28;20067;-78
2023/12/23 06:10:34;;;;;;;30.85;17.40;;;;;;;4.40;100.00;96266.47;5039541;28;20075;-78
2023/12/23 06:13:00;;;;;;;33.53;17.58;;;;;;;4.35;100.00;96261.03;5039420;28;20135;-79
2023/12/23 06:15:26;;;;;;;27.73;16.25;;;;;;;4.45;100.00;96261.41;5039103;28;20128;-76
2023/12/23 06:17:52;;;;;;;27.73;15.32;;;;;;;4.46;100.00;96269.09;5022409;28;20044;-77
2023/12/23 06:20:18;;;;;;;28.23;15.80;;;;;;;4.46;100.00;96276.19;5022750;28;20055;-77
2023/12/23 06:22:45;;;;;;;38.03;18.00;;;;;;;4.42;100.00;96277.59;4994943;28;20049;-74
2023/12/23 06:25:11;;;;;;;26.17;15.43;;;;;;;4.49;100.00;96284.44;5004086;28;20049;-74
2023/12/23 06:27:36;;;;;;;31.38;17.15;;;;;;;4.50;100.00;96278.22;4995365;28;20075;-74
2023/12/23 06:30:03;;;;;;;25.65;14.85;;;;;;;4.56;100.00;96276.56;4963069;28;20467;-74
2023/12/23 06:32:30;;;;;;;29.17;15.48;;;;;;;4.62;100.00;96283.66;4995130;28;20160;-74
2023/12/23 06:34:56;;;;;;;31.88;15.93;;;;;;;4.62;100.00;96287.09;4946837;28;20042;-73
2023/12/23 06:37:22;;;;;;;30.85;16.35;;;;;;;4.60;100.00;96283.03;4936501;28;20076;-74
2023/12/23 06:39:47;;;;;;;29.15;15.90;;;;;;;4.69;100.00;96290.53;4947121;28;20058;-74
2023/12/23 06:42:14;;;;;;;30.13;15.82;;;;;;;4.67;100.00;96286.50;4965941;28;20042;-70
2023/12/23 06:44:41;;;;;;;27.70;15.60;;;;;;;4.69;100.00;96284.47;4965037;28;20090;-71
2023/12/23 06:47:08;;;;;;;26.23;15.38;;;;;;;4.69;100.00;96295.78;4919739;29;20090;-70
2023/12/23 06:49:33;;;;;;;30.42;16.15;;;;;;;4.64;100.00;96292.16;4909817;29;20075;-74
2023/12/23 06:52:01;;;;;;;29.50;16.00;;;;;;;4.67;100.00;96289.94;4938074;29;20111;-68
2023/12/23 06:54:27;;;;;;;26.92;15.15;;;;;;;4.64;100.00;96292.16;4943584;28;20401;-69
2023/12/23 06:56:52;;;;;;;31.90;16.67;;;;;;;4.59;100.00;96284.88;4952259;28;20436;-69
2023/12/23 06:59:18;;;;;;;29.73;16.08;;;;;;;4.65;100.00;96281.44;4938819;28;20059;-69
2023/12/23 07:01:44;;;;;;;30.95;18.05;;;;;;;4.61;100.00;96284.66;4926004;29;20051;-69
2023/12/23 07:04:10;;;;;;;33.15;17.00;;;;;;;4.67;100.00;96281.22;4901108;29;20191;-68
2023/12/23 07:07:00;;;;;;;27.23;14.43;;;;;;;4.83;100.00;96296.56;4956164;28;20136;-69
2023/12/23 07:09:32;;;;;;;25.50;14.45;;;;;;;4.86;100.00;96298.78;4966304;28;20050;-69
2023/12/23 07:11:59;;;;;;;26.48;15.02;;;;;;;4.83;100.00;96297.38;4948105;28;20097;-70
2023/12/23 07:14:25;;;;;;;29.52;15.40;;;;;;;4.80;100.00;96305.69;4947773;28;20141;-70
2023/12/23 07:16:51;;;;;;;27.17;15.65;;;;;;;4.83;100.00;96307.91;4949277;28;20141;-70
2023/12/23 07:19:18;;;;;;;30.58;15.48;;;;;;;4.87;100.00;96319.63;4963921;28;20513;-69
2023/12/23 07:21:44;;;;;;;28.77;16.20;;;;;;;4.86;100.00;96311.94;4940331;28;20046;-69
2023/12/23 07:24:38;;;;;;;29.48;15.80;;;;;;;4.95;100.00;96316.78;4922072;28;20085;-69
2023/12/23 07:27:11;;;;;;;31.17;15.85;;;;;;;4.73;100.00;96323.28;4894535;29;20090;-69
2023/12/23 07:29:40;;;;;;;25.98;14.60;;;;;;;4.86;100.00;96333.78;4888003;29;20118;-69
2023/12/23 07:32:07;;;;;;;27.33;14.88;;;;;;;4.87;100.00;96322.25;4918068;29;20085;-69
2023/12/23 07:34:33;;;;;;;30.42;16.40;;;;;;;4.77;100.00;96342.06;4935982;29;20082;-69
2023/12/23 07:36:59;;;;;;;24.35;13.55;;;;;;;4.85;100.00;96340.06;4920382;29;20132;-69
2023/12/23 07:39:25;;;;;;;27.30;15.18;;;;;;;4.84;100.00;96356.03;4904455;29;20071;-68
2023/12/23 07:41:50;;;;;;;25.58;15.65;;;;;;;4.81;100.00;96346.72;4935592;29;20496;-69
2023/12/23 07:44:17;;;;;;;22.85;13.50;;;;;;;4.91;100.00;96357.66;4951664;28;20055;-69
2023/12/23 07:46:43;;;;;;;23.80;13.45;;;;;;;4.92;100.00;96358.47;4952204;28;20055;-69
2023/12/23 07:49:09;;;;;;;24.65;13.70;;;;;;;4.90;100.00;96360.50;4951974;28;20379;-71
2023/12/23 07:51:35;;;;;;;22.23;13.30;;;;;;;4.88;100.00;96352.81;4930109;28;20437;-69
2023/12/23 07:54:01;;;;;;;21.63;12.60;;;;;;;4.85;100.00;96357.66;4955032;28;20047;-68
2023/12/23 07:56:27;;;;;;;20.15;12.70;;;;;;;4.83;100.00;96365.72;4938821;28;20393;-69
2023/12/23 07:58:53;;;;;;;20.45;12.48;;;;;;;4.84;100.00;96356.03;4955122;28;20047;-69
2023/12/23 08:01:18;;;;;;;23.85;12.70;;;;;;;4.90;100.00;96363.13;4939027;28;20050;-69
2023/12/23 08:03:44;;;;;;;21.90;12.30;;;;;;;4.86;100.00;96364.50;4978859;28;20096;-69
2023/12/23 08:06:10;;;;;;;19.23;11.45;;;;;;;4.80;100.00;96381.09;4977907;28;20046;-71
2023/12/23 08:08:36;;;;;;;16.98;11.57;;;;;;;4.71;100.00;96367.34;4977932;28;20185;-69
2023/12/23 08:11:02;;;;;;;16.90;11.25;;;;;;;4.75;100.00;96354.63;4977790;28;20120;-69
2023/12/23 08:13:31;;;;;;;16.02;10.57;;;;;;;4.75;100.00;96358.03;4977614;28;20476;-69
2023/12/23 08:16:00;;;;;;;18.08;11.13;;;;;;;4.77;100.00;96368.34;4961489;28;20487;-69
2023/12/23 08:18:36;;;;;;;13.85;9.10;;;;;;;4.69;100.00;96411.41;5007233;28;20054;-69
2023/12/23 08:21:10;;;;;;;17.35;10.18;;;;;;;4.71;100.00;96392.81;4936713;29;20142;-70
2023/12/23 08:23:35;;;;;;;16.50;10.15;;;;;;;4.69;100.00;96379.88;4904233;28;20101;-69
2023/12/23 08:26:01;;;;;;;14.82;9.50;;;;;;;4.65;100.00;96373.41;4891580;29;20509;-69
2023/12/23 08:28:27;;;;;;;17.00;9.45;;;;;;;4.70;100.00;96380.69;4907774;29;20047;-69
2023/12/23 08:30:53;;;;;;;13.88;9.13;;;;;;;4.69;100.00;96389.59;4923479;29;20453;-69
2023/12/23 08:33:18;;;;;;;12.98;8.77;;;;;;;4.68;100.00;96370.38;4892125;29;20070;-69
2023/12/23 08:35:44;;;;;;;16.35;8.70;;;;;;;4.72;100.00;96387.34;4892027;29;20054;-70
2023/12/23 08:38:10;;;;;;;12.10;8.65;;;;;;;4.68;100.00;96373.00;4955422;29;20047;-69
2023/12/23 08:40:36;;;;;;;12.73;8.90;;;;;;;4.71;100.00;96379.66;4891757;29;20094;-70
2023/12/23 08:43:02;;;;;;;12.05;8.40;;;;;;;4.70;100.00;96383.31;4891410;29;20089;-69
2023/12/23 08:45:28;;;;;;;13.48;8.70;;;;;;;4.70;100.00;96375.44;4907618;29;20098;-70
2023/12/23 08:47:54;;;;;;;10.55;7.80;;;;;;;4.64;100.00;96373.59;4892083;29;20106;-70
2023/12/23 08:50:22;;;;;;;10.30;7.55;;;;;;;4.63;100.00;96374.59;4891736;29;20083;-69
2023/12/23 08:52:49;;;;;;;8.93;6.88;;;;;;;4.60;100.00;96388.97;4891941;29;20163;-69
2023/12/23 08:55:17;;;;;;;9.13;7.18;;;;;;;4.55;100.00;96386.13;4891944;29;20136;-70
2023/12/23 08:57:44;;;;;;;9.90;7.05;;;;;;;4.52;100.00;96391.78;4966747;28;20045;-69
2023/12/23 09:00:10;;;;;;;11.77;7.53;;;;;;;4.55;100.00;96399.25;4981181;28;20054;-69
2023/12/23 09:02:36;;;;;;;8.15;6.47;;;;;;;4.53;100.00;96408.34;4964365;28;20059;-69
2023/12/23 09:05:02;;;;;;;8.10;6.55;;;;;;;4.58;100.00;96419.88;4964236;28;20093;-68
2023/12/23 09:07:29;;;;;;;7.93;5.68;;;;;;;4.55;100.00;96411.59;4964534;28;20041;-69
2023/12/23 09:09:56;;;;;;;7.72;5.72;;;;;;;4.53;100.00;96418.84;5023859;28;20037;-69
2023/12/23 09:12:22;;;;;;;8.52;6.07;;;;;;;4.36;100.00;96414.97;5023797;28;20059;-69
2023/12/23 09:14:49;;;;;;;9.10;6.32;;;;;;;4.38;100.00;96397.22;5040479;28;20052;-69
2023/12/23 09:17:19;;;;;;;7.28;5.78;;;;;;;4.38;100.00;96424.25;5023835;28;20036;-69
2023/12/23 09:19:45;;;;;;;8.05;5.57;;;;;;;4.33;100.00;96420.63;5007550;28;20135;-69
2023/12/23 09:22:11;;;;;;;7.72;5.95;;;;;;;4.32;100.00;96430.31;5023733;28;20036;-69
2023/12/23 09:24:37;;;;;;;7.32;5.75;;;;;;;4.23;100.00;96420.97;5023378;28;20040;-69
2023/12/23 09:27:03;;;;;;;7.13;5.75;;;;;;;4.26;100.00;96427.69;5023181;28;20068;-70
2023/12/23 09:29:29;;;;;;;8.57;5.55;;;;;;;4.24;100.00;96441.00;5007195;28;20040;-69
2023/12/23 09:31:56;;;;;;;8.15;5.65;;;;;;;4.29;100.00;96419.41;4998892;28;20060;-69
2023/12/23 09:34:21;;;;;;;9.05;5.90;;;;;;;4.34;100.00;96420.41;4983137;28;20364;-69
2023/12/23 09:36:47;;;;;;;7.20;5.85;;;;;;;4.40;100.00;96413.56;5015173;28;20057;-69
2023/12/23 09:39:13;;;;;;;8.00;6.40;;;;;;;4.46;100.00;96420.69;4983288;28;20087;-69
2023/12/23 09:41:42;;;;;;;7.82;6.22;;;;;;;4.55;100.00;96425.53;4995858;28;20163;-69
2023/12/23 09:44:09;;;;;;;7.43;5.97;;;;;;;4.49;100.00;96426.31;4963355;28;20053;-70
2023/12/23 09:46:38;;;;;;;7.60;5.80;;;;;;;4.54;100.00;96417.84;5012053;28;20050;-69
2023/12/23 09:49:03;;;;;;;7.22;5.70;;;;;;;4.48;100.00;96418.63;4979335;28;20041;-69
2023/12/23 09:51:31;;;;;;;7.35;5.65;;;;;;;4.54;100.00;96415.22;4979510;28;20044;-69
2023/12/23 09:53:59;;;;;;;8.40;6.20;;;;;;;4.46;100.00;96425.94;4979290;28;20081;-69
2023/12/23 09:56:28;;;;;;;9.20;6.57;;;;;;;4.44;100.00;96425.31;4979526;28;20133;-69
2023/12/23 09:58:55;;;;;;;8.55;6.03;;;;;;;4.43;100.00;96423.66;4979381;28;20144;-69
2023/12/23 10:01:21;;;;;;;8.35;5.90;;;;;;;4.38;100.00;96428.72;4995495;28;20042;-69
2023/12/23 10:03:47;;;;;;;8.95;6.05;;;;;;;4.38;100.00;96439.22;4995455;28;20053;-71
2023/12/23 10:06:16;;;;;;;6.70;5.20;;;;;;;4.41;100.00;96428.34;4995630;28;20116;-68
2023/12/23 10:08:42;;;;;;;9.05;5.85;;;;;;;4.39;100.00;96425.09;5005604;28;20049;-68
2023/12/23 10:11:08;;;;;;;7.00;5.18;;;;;;;4.35;100.00;96421.25;5002012;28;20041;-70
2023/12/23 10:13:35;;;;;;;6.70;5.40;;;;;;;4.38;100.00;96411.13;4985546;28;20411;-69
2023/12/23 10:16:01;;;;;;;6.25;5.10;;;;;;;4.36;100.00;96405.28;5001699;28;20456;-69
2023/12/23 10:18:27;;;;;;;6.57;5.47;;;;;;;4.47;100.00;96407.34;5006953;28;20052;-69
2023/12/23 10:20:53;;;;;;;6.80;5.57;;;;;;;4.51;100.00;96413.81;5005963;28;20489;-69
2023/12/23 10:23:19;;;;;;;7.68;5.07;;;;;;;4.57;100.00;96414.81;5005911;28;20036;-68
2023/12/23 10:25:45;;;;;;;6.53;5.30;;;;;;;4.58;100.00;96419.88;5022398;28;20487;-68
2023/12/23 10:28:11;;;;;;;10.30;5.10;;;;;;;4.62;100.00;96428.16;5006017;28;20064;-69
2023/12/23 10:30:47;;;;;;;7.13;5.18;;;;;;;4.67;100.00;96428.41;5038574;28;20386;-68
2023/12/23 10:33:19;;;;;;;8.32;5.53;;;;;;;4.61;100.00;96419.47;5005949;28;20127;-70
2023/12/23 10:35:47;;;;;;;6.93;5.35;;;;;;;4.58;100.00;96424.34;5006243;28;20044;-69
2023/12/23 10:38:26;;;;;;;5.82;5.22;;;;;;;4.59;100.00;96421.50;5055590;28;20045;-69
2023/12/23 10:41:07;;;;;;;6.00;4.90;;;;;;;4.56;100.00;96426.34;5054987;28;20040;-68
2023/12/23 10:43:34;;;;;;;7.55;5.30;;;;;;;4.48;100.00;96431.78;5022096;28;20060;-69
2023/12/23 10:46:03;;;;;;;10.73;5.85;;;;;;;4.55;100.00;96435.25;5022442;28;20444;-69
2023/12/23 10:48:32;;;;;;;7.85;5.82;;;;;;;4.53;100.00;96430.19;5013537;28;20069;-69
2023/12/23 10:51:00;;;;;;;8.15;6.20;;;;;;;4.46;100.00;96454.81;4997906;28;20491;-69
2023/12/23 10:53:28;;;;;;;6.93;5.47;;;;;;;4.42;100.00;96440.44;4981807;28;20064;-69
2023/12/23 10:55:55;;;;;;;7.57;5.50;;;;;;;4.43;100.00;96437.63;4997984;28;20199;-69
2023/12/23 10:58:24;;;;;;;9.27;5.38;;;;;;;4.40;100.00;96430.13;4997836;28;20140;-68
2023/12/23 11:00:59;;;;;;;8.35;5.60;;;;;;;4.46;100.00;96437.22;5009518;28;20064;-70
2023/12/23 11:03:32;;;;;;;6.43;5.22;;;;;;;4.51;100.00;96444.50;5017580;28;20055;-69
2023/12/23 11:06:00;;;;;;;6.38;5.07;;;;;;;4.54;100.00;96439.69;5033612;28;20037;-70
2023/12/23 11:08:38;;;;;;;5.28;4.38;;;;;;;4.69;100.00;96442.16;5031058;28;20052;-70
2023/12/23 11:11:20;;;;;;;5.05;4.10;;;;;;;4.73;100.00;96453.88;5017786;28;20033;-69
2023/12/23 11:13:46;;;;;;;7.93;4.90;;;;;;;4.76;100.00;96458.72;4985524;28;20089;-69
2023/12/23 11:16:47;;;;;;;5.13;4.40;;;;;;;4.98;100.00;96454.94;4977471;28;20077;-69
2023/12/23 11:19:13;;;;;;;6.32;4.70;;;;;;;4.87;100.00;96451.06;5012330;28;20041;-69
2023/12/23 11:21:39;;;;;;;6.22;4.28;;;;;;;4.88;100.00;96449.25;4979206;28;20040;-69
2023/12/23 11:24:34;;;;;;;5.65;4.50;;;;;;;5.09;100.00;96464.84;5031342;28;20049;-69